South Palm Beach, Florida
Current Conditions -  °F | °C
As of 7:53 PM on Monday 22 Dec 2014 (Local Time) from KPBI Reporting Station
Broken Clouds Broken Clouds  
Wind Chill: 76°   Ceiling: 25000
Heat Index: 76°   Visibility: 10mi
Dew Point: 70°   Wind: 8mph
Humidity: 82%   Direction: 160°SSE
Pressure: 29.96"   Gusts: NA
Location:  26.6941°N, 80.0379°W
Report Text: KPBI 230053Z 16007KT 10SM BKN250 24/21 A2996 RMK AO2 SLP144 T02440211
Loading
Personal Weather Stations






























Interactive Weather Map New forecast layout! Learn more

10-Day Weather Forecast

Advertisements
Track Severe Weather on mobile